sensor_id;sensor_type;location;lat;lon;timestamp;pressure;altitude;pressure_sealevel;temperature;humidity
6599;BME280;3335;43.198;27.918;2023-03-16T00:02:21;149670.91;;;9.63;100.00
6599;BME280;3335;43.198;27.918;2023-03-16T00:04:48;149668.38;;;9.62;100.00
6599;BME280;3335;43.198;27.918;2023-03-16T00:07:15;149670.91;;;9.63;100.00
6599;BME280;3335;43.198;27.918;2023-03-16T00:09:42;149680.88;;;9.68;100.00
6599;BME280;3335;43.198;27.918;2023-03-16T00:12:12;149703.34;;;9.77;100.00
6599;BME280;3335;43.198;27.918;2023-03-16T00:14:42;149705.84;;;9.78;100.00
6599;BME280;3335;43.198;27.918;2023-03-16T00:17:10;149748.28;;;9.95;100.00
6599;BME280;3335;43.198;27.918;2023-03-16T00:19:44;149725.81;;;9.86;100.00
6599;BME280;3335;43.198;27.918;2023-03-16T00:22:12;149705.84;;;9.78;100.00
6599;BME280;3335;43.198;27.918;2023-03-16T00:24:39;149709.56;;;9.79;100.00
6599;BME280;3335;43.198;27.918;2023-03-16T00:27:08;149685.84;;;9.70;100.00
6599;BME280;3335;43.198;27.918;2023-03-16T00:29:41;149730.84;;;9.88;100.00
6599;BME280;3335;43.198;27.918;2023-03-16T00:32:13;149715.84;;;9.82;100.00
6599;BME280;3335;43.198;27.918;2023-03-16T00:34:41;149708.38;;;9.79;100.00
6599;BME280;3335;43.198;27.918;2023-03-16T00:37:08;149720.81;;;9.84;100.00
6599;BME280;3335;43.198;27.918;2023-03-16T00:39:35;149717.09;;;9.82;100.00
6599;BME280;3335;43.198;27.918;2023-03-16T00:42:01;149728.31;;;9.87;100.00
6599;BME280;3335;43.198;27.918;2023-03-16T00:44:28;149740.81;;;9.92;100.00
6599;BME280;3335;43.198;27.918;2023-03-16T00:46:57;149740.81;;;9.92;100.00
6599;BME280;3335;43.198;27.918;2023-03-16T00:49:24;149759.53;;;9.99;100.00
6599;BME280;3335;43.198;27.918;2023-03-16T00:51:51;149732.09;;;9.88;100.00
6599;BME280;3335;43.198;27.918;2023-03-16T00:54:18;149725.81;;;9.86;100.00
6599;BME280;3335;43.198;27.918;2023-03-16T00:56:46;149728.31;;;9.87;100.00
6599;BME280;3335;43.198;27.918;2023-03-16T00:59:13;149758.28;;;9.99;100.00
6599;BME280;3335;43.198;27.918;2023-03-16T01:01:40;149718.34;;;9.83;100.00
6599;BME280;3335;43.198;27.918;2023-03-16T01:04:09;149723.31;;;9.85;100.00
6599;BME280;3335;43.198;27.918;2023-03-16T01:06:36;149737.06;;;9.90;100.00
6599;BME280;3335;43.198;27.918;2023-03-16T01:09:03;149705.84;;;9.78;100.00
6599;BME280;3335;43.198;27.918;2023-03-16T01:11:31;149725.81;;;9.86;100.00
6599;BME280;3335;43.198;27.918;2023-03-16T01:13:59;149705.84;;;9.78;100.00
6599;BME280;3335;43.198;27.918;2023-03-16T01:16:26;149728.31;;;9.87;100.00
6599;BME280;3335;43.198;27.918;2023-03-16T01:18:54;149719.59;;;9.83;100.00
6599;BME280;3335;43.198;27.918;2023-03-16T01:21:23;149722.06;;;9.84;100.00
6599;BME280;3335;43.198;27.918;2023-03-16T01:23:50;149713.34;;;9.81;100.00
6599;BME280;3335;43.198;27.918;2023-03-16T01:26:18;149745.78;;;9.94;100.00
6599;BME280;3335;43.198;27.918;2023-03-16T01:28:45;149742.06;;;9.92;100.00
6599;BME280;3335;43.198;27.918;2023-03-16T01:31:13;149728.31;;;9.87;100.00
6599;BME280;3335;43.198;27.918;2023-03-16T01:33:41;149685.84;;;9.70;100.00
6599;BME280;3335;43.198;27.918;2023-03-16T01:36:10;149713.34;;;9.81;100.00
6599;BME280;3335;43.198;27.918;2023-03-16T01:38:39;149710.81;;;9.80;100.00
6599;BME280;3335;43.198;27.918;2023-03-16T01:41:08;149704.59;;;9.77;100.00
6599;BME280;3335;43.198;27.918;2023-03-16T01:43:36;149702.09;;;9.76;100.00
6599;BME280;3335;43.198;27.918;2023-03-16T01:46:16;149708.38;;;9.79;100.00
6599;BME280;3335;43.198;27.918;2023-03-16T01:48:47;149693.38;;;9.73;100.00
6599;BME280;3335;43.198;27.918;2023-03-16T01:51:18;149693.38;;;9.73;100.00
6599;BME280;3335;43.198;27.918;2023-03-16T01:53:50;149700.84;;;9.76;100.00
6599;BME280;3335;43.198;27.918;2023-03-16T01:56:21;149703.34;;;9.77;100.00
6599;BME280;3335;43.198;27.918;2023-03-16T01:58:51;149680.88;;;9.68;100.00
6599;BME280;3335;43.198;27.918;2023-03-16T02:01:23;149673.41;;;9.64;100.00
6599;BME280;3335;43.198;27.918;2023-03-16T02:03:53;149685.84;;;9.70;100.00
6599;BME280;3335;43.198;27.918;2023-03-16T02:06:21;149675.88;;;9.65;100.00
6599;BME280;3335;43.198;27.918;2023-03-16T02:08:50;149675.88;;;9.65;100.00
6599;BME280;3335;43.198;27.918;2023-03-16T02:11:20;149683.38;;;9.69;100.00
6599;BME280;3335;43.198;27.918;2023-03-16T02:13:47;149684.63;;;9.69;100.00
6599;BME280;3335;43.198;27.918;2023-03-16T02:16:16;149649.69;;;9.55;100.00
6599;BME280;3335;43.198;27.918;2023-03-16T02:18:45;149653.41;;;9.56;100.00
6599;BME280;3335;43.198;27.918;2023-03-16T02:21:18;149660.91;;;9.59;100.00
6599;BME280;3335;43.198;27.918;2023-03-16T02:23:47;149644.66;;;9.53;100.00
6599;BME280;3335;43.198;27.918;2023-03-16T02:26:23;149639.66;;;9.51;100.00
6599;BME280;3335;43.198;27.918;2023-03-16T02:29:02;149650.91;;;9.55;100.00
6599;BME280;3335;43.198;27.918;2023-03-16T02:31:36;149633.44;;;9.48;100.00
6599;BME280;3335;43.198;27.918;2023-03-16T02:34:03;149620.97;;;9.43;100.00
6599;BME280;3335;43.198;27.918;2023-03-16T02:36:32;149620.97;;;9.43;100.00
6599;BME280;3335;43.198;27.918;2023-03-16T02:39:00;149620.97;;;9.43;100.00
6599;BME280;3335;43.198;27.918;2023-03-16T02:41:27;149618.44;;;9.42;100.00
6599;BME280;3335;43.198;27.918;2023-03-16T02:44:01;149601.00;;;9.35;100.00
6599;BME280;3335;43.198;27.918;2023-03-16T02:46:30;149559.78;;;9.18;100.00
6599;BME280;3335;43.198;27.918;2023-03-16T02:49:04;149609.72;;;9.39;100.00
6599;BME280;3335;43.198;27.918;2023-03-16T02:51:33;149593.47;;;9.32;100.00
6599;BME280;3335;43.198;27.918;2023-03-16T02:54:00;149650.91;;;9.55;100.00
6599;BME280;3335;43.198;27.918;2023-03-16T02:56:27;149630.94;;;9.47;100.00
6599;BME280;3335;43.198;27.918;2023-03-16T02:58:54;149630.94;;;9.47;100.00
6599;BME280;3335;43.198;27.918;2023-03-16T03:01:22;149647.19;;;9.54;100.00
6599;BME280;3335;43.198;27.918;2023-03-16T03:03:49;149647.19;;;9.54;100.00
6599;BME280;3335;43.198;27.918;2023-03-16T03:06:17;149648.44;;;9.54;100.00
6599;BME280;3335;43.198;27.918;2023-03-16T03:08:44;149643.44;;;9.52;100.00
6599;BME280;3335;43.198;27.918;2023-03-16T03:11:11;149634.69;;;9.49;100.00
6599;BME280;3335;43.198;27.918;2023-03-16T03:13:38;149650.91;;;9.55;100.00
6599;BME280;3335;43.198;27.918;2023-03-16T03:16:08;149648.44;;;9.54;100.00
6599;BME280;3335;43.198;27.918;2023-03-16T03:18:35;149665.88;;;9.61;100.00
6599;BME280;3335;43.198;27.918;2023-03-16T03:21:01;149687.09;;;9.70;100.00
6599;BME280;3335;43.198;27.918;2023-03-16T03:23:30;149678.38;;;9.66;100.00
6599;BME280;3335;43.198;27.918;2023-03-16T03:25:57;149675.88;;;9.65;100.00
6599;BME280;3335;43.198;27.918;2023-03-16T03:28:25;149699.59;;;9.75;100.00
6599;BME280;3335;43.198;27.918;2023-03-16T03:30:51;149698.34;;;9.75;100.00
6599;BME280;3335;43.198;27.918;2023-03-16T03:33:18;149695.88;;;9.74;100.00
6599;BME280;3335;43.198;27.918;2023-03-16T03:35:46;149740.81;;;9.92;100.00
6599;BME280;3335;43.198;27.918;2023-03-16T03:38:13;149728.31;;;9.87;100.00
6599;BME280;3335;43.198;27.918;2023-03-16T03:40:42;149707.09;;;9.78;100.00
6599;BME280;3335;43.198;27.918;2023-03-16T03:43:09;149700.84;;;9.76;100.00
6599;BME280;3335;43.198;27.918;2023-03-16T03:45:36;149715.84;;;9.82;100.00
6599;BME280;3335;43.198;27.918;2023-03-16T03:48:03;149690.88;;;9.72;100.00
6599;BME280;3335;43.198;27.918;2023-03-16T03:50:30;149693.38;;;9.73;100.00
6599;BME280;3335;43.198;27.918;2023-03-16T03:52:57;149698.34;;;9.75;100.00
6599;BME280;3335;43.198;27.918;2023-03-16T03:55:24;149699.59;;;9.75;100.00
6599;BME280;3335;43.198;27.918;2023-03-16T03:57:52;149700.84;;;9.76;100.00
6599;BME280;3335;43.198;27.918;2023-03-16T04:00:20;149674.63;;;9.65;100.00
6599;BME280;3335;43.198;27.918;2023-03-16T04:02:47;149698.34;;;9.75;100.00
6599;BME280;3335;43.198;27.918;2023-03-16T04:05:14;149682.13;;;9.68;100.00
6599;BME280;3335;43.198;27.918;2023-03-16T04:07:41;149670.91;;;9.63;100.00
6599;BME280;3335;43.198;27.918;2023-03-16T04:10:09;149679.63;;;9.67;100.00
6599;BME280;3335;43.198;27.918;2023-03-16T04:12:36;149675.88;;;9.65;100.00
6599;BME280;3335;43.198;27.918;2023-03-16T04:15:05;149673.41;;;9.64;100.00
6599;BME280;3335;43.198;27.918;2023-03-16T04:17:32;149674.63;;;9.65;100.00
6599;BME280;3335;43.198;27.918;2023-03-16T04:19:59;149650.91;;;9.55;100.00
6599;BME280;3335;43.198;27.918;2023-03-16T04:22:27;149669.66;;;9.63;100.00
6599;BME280;3335;43.198;27.918;2023-03-16T04:24:54;149663.38;;;9.60;100.00
6599;BME280;3335;43.198;27.918;2023-03-16T04:27:21;149648.44;;;9.54;100.00
6599;BME280;3335;43.198;27.918;2023-03-16T04:29:48;149635.94;;;9.49;100.00
6599;BME280;3335;43.198;27.918;2023-03-16T04:32:21;149630.94;;;9.47;100.00
6599;BME280;3335;43.198;27.918;2023-03-16T04:34:50;149618.44;;;9.42;100.00
6599;BME280;3335;43.198;27.918;2023-03-16T04:37:20;149605.97;;;9.37;100.00
6599;BME280;3335;43.198;27.918;2023-03-16T04:39:47;149581.00;;;9.27;100.00
6599;BME280;3335;43.198;27.918;2023-03-16T04:42:14;149587.25;;;9.30;100.00
6599;BME280;3335;43.198;27.918;2023-03-16T04:44:41;149620.97;;;9.43;100.00
6599;BME280;3335;43.198;27.918;2023-03-16T04:47:09;149597.25;;;9.34;100.00
6599;BME280;3335;43.198;27.918;2023-03-16T04:49:38;149586.03;;;9.29;100.00
6599;BME280;3335;43.198;27.918;2023-03-16T04:52:05;149625.97;;;9.45;100.00
6599;BME280;3335;43.198;27.918;2023-03-16T04:54:32;149619.72;;;9.43;100.00
6599;BME280;3335;43.198;27.918;2023-03-16T04:56:59;149564.81;;;9.20;100.00
6599;BME280;3335;43.198;27.918;2023-03-16T04:59:28;149593.47;;;9.32;100.00
6599;BME280;3335;43.198;27.918;2023-03-16T05:01:55;149598.50;;;9.34;100.00
6599;BME280;3335;43.198;27.918;2023-03-16T05:04:21;149583.50;;;9.28;100.00
6599;BME280;3335;43.198;27.918;2023-03-16T05:06:50;149553.56;;;9.16;100.00
6599;BME280;3335;43.198;27.918;2023-03-16T05:09:17;149566.06;;;9.21;100.00
6599;BME280;3335;43.198;27.918;2023-03-16T05:11:45;149556.09;;;9.17;100.00
6599;BME280;3335;43.198;27.918;2023-03-16T05:14:12;149576.03;;;9.25;100.00
6599;BME280;3335;43.198;27.918;2023-03-16T05:16:39;149527.38;;;9.05;100.00
6599;BME280;3335;43.198;27.918;2023-03-16T05:19:06;149571.03;;;9.23;100.00
6599;BME280;3335;43.198;27.918;2023-03-16T05:21:33;149566.06;;;9.21;100.00
6599;BME280;3335;43.198;27.918;2023-03-16T05:24:03;149563.56;;;9.20;100.00
6599;BME280;3335;43.198;27.918;2023-03-16T05:26:30;149561.06;;;9.19;100.00
6599;BME280;3335;43.198;27.918;2023-03-16T05:28:58;149541.09;;;9.11;100.00
6599;BME280;3335;43.198;27.918;2023-03-16T05:31:25;149517.41;;;9.01;100.00
6599;BME280;3335;43.198;27.918;2023-03-16T05:33:53;149532.38;;;9.07;100.00
6599;BME280;3335;43.198;27.918;2023-03-16T05:36:20;149513.63;;;9.00;100.00
6599;BME280;3335;43.198;27.918;2023-03-16T05:38:49;149493.69;;;8.92;100.00
6599;BME280;3335;43.198;27.918;2023-03-16T05:41:17;149501.16;;;8.95;100.00
6599;BME280;3335;43.198;27.918;2023-03-16T05:43:45;149516.13;;;9.01;100.00
6599;BME280;3335;43.198;27.918;2023-03-16T05:46:12;149519.91;;;9.02;100.00
6599;BME280;3335;43.198;27.918;2023-03-16T05:48:39;149511.13;;;8.99;100.00
6599;BME280;3335;43.198;27.918;2023-03-16T05:51:06;149498.66;;;8.94;100.00
6599;BME280;3335;43.198;27.918;2023-03-16T05:53:33;149492.44;;;8.91;100.00
6599;BME280;3335;43.198;27.918;2023-03-16T05:56:00;149496.19;;;8.93;100.00
6599;BME280;3335;43.198;27.918;2023-03-16T05:58:29;149503.66;;;8.96;100.00
6599;BME280;3335;43.198;27.918;2023-03-16T06:00:58;149373.94;;;8.43;100.00
6599;BME280;3335;43.198;27.918;2023-03-16T06:03:26;149498.66;;;8.94;100.00
6599;BME280;3335;43.198;27.918;2023-03-16T06:05:53;149487.41;;;8.89;100.00
6599;BME280;3335;43.198;27.918;2023-03-16T06:08:20;149473.72;;;8.84;100.00
6599;BME280;3335;43.198;27.918;2023-03-16T06:10:47;149473.72;;;8.84;100.00
6599;BME280;3335;43.198;27.918;2023-03-16T06:13:14;149478.69;;;8.86;100.00
6599;BME280;3335;43.198;27.918;2023-03-16T06:15:42;149463.72;;;8.79;100.00
6599;BME280;3335;43.198;27.918;2023-03-16T06:18:09;149461.25;;;8.78;100.00
6599;BME280;3335;43.198;27.918;2023-03-16T06:20:36;149486.16;;;8.89;100.00
6599;BME280;3335;43.198;27.918;2023-03-16T06:23:03;149488.66;;;8.90;100.00
6599;BME280;3335;43.198;27.918;2023-03-16T06:25:30;149491.19;;;8.91;100.00
6599;BME280;3335;43.198;27.918;2023-03-16T06:27:57;149497.44;;;8.93;100.00
6599;BME280;3335;43.198;27.918;2023-03-16T06:30:24;149506.16;;;8.97;100.00
6599;BME280;3335;43.198;27.918;2023-03-16T06:32:52;149508.66;;;8.98;100.00
6599;BME280;3335;43.198;27.918;2023-03-16T06:35:19;149508.66;;;8.98;100.00
6599;BME280;3335;43.198;27.918;2023-03-16T06:37:46;149513.63;;;9.00;100.00
6599;BME280;3335;43.198;27.918;2023-03-16T06:40:13;149517.41;;;9.01;100.00
6599;BME280;3335;43.198;27.918;2023-03-16T06:42:40;149526.13;;;9.05;100.00
6599;BME280;3335;43.198;27.918;2023-03-16T06:45:08;149538.59;;;9.10;100.00
6599;BME280;3335;43.198;27.918;2023-03-16T06:47:35;149517.41;;;9.01;100.00
6599;BME280;3335;43.198;27.918;2023-03-16T06:50:05;149534.84;;;9.08;100.00
6599;BME280;3335;43.198;27.918;2023-03-16T06:52:33;149543.59;;;9.12;100.00
6599;BME280;3335;43.198;27.918;2023-03-16T06:55:00;149558.53;;;9.18;100.00
6599;BME280;3335;43.198;27.918;2023-03-16T06:57:27;149567.31;;;9.21;100.00
6599;BME280;3335;43.198;27.918;2023-03-16T06:59:53;149571.03;;;9.23;100.00
6599;BME280;3335;43.198;27.918;2023-03-16T07:02:20;149554.84;;;9.16;100.00
6599;BME280;3335;43.198;27.918;2023-03-16T07:04:48;149563.56;;;9.20;100.00
6599;BME280;3335;43.198;27.918;2023-03-16T07:07:16;149563.56;;;9.20;100.00
6599;BME280;3335;43.198;27.918;2023-03-16T07:09:44;149573.53;;;9.24;100.00
6599;BME280;3335;43.198;27.918;2023-03-16T07:12:11;149573.53;;;9.24;100.00
6599;BME280;3335;43.198;27.918;2023-03-16T07:14:38;149556.09;;;9.17;100.00
6599;BME280;3335;43.198;27.918;2023-03-16T07:17:06;149615.94;;;9.41;100.00
6599;BME280;3335;43.198;27.918;2023-03-16T07:19:33;149596.00;;;9.33;100.00
6599;BME280;3335;43.198;27.918;2023-03-16T07:22:00;149571.03;;;9.23;100.00
6599;BME280;3335;43.198;27.918;2023-03-16T07:24:29;149546.06;;;9.13;100.00
6599;BME280;3335;43.198;27.918;2023-03-16T07:26:57;149498.66;;;8.94;100.00
6599;BME280;3335;43.198;27.918;2023-03-16T07:29:24;149527.38;;;9.05;100.00
6599;BME280;3335;43.198;27.918;2023-03-16T07:31:51;149523.59;;;9.04;100.00
6599;BME280;3335;43.198;27.918;2023-03-16T07:34:18;149521.09;;;9.03;100.00
6599;BME280;3335;43.198;27.918;2023-03-16T07:36:45;149538.59;;;9.10;100.00
6599;BME280;3335;43.198;27.918;2023-03-16T07:39:13;149538.59;;;9.10;100.00
6599;BME280;3335;43.198;27.918;2023-03-16T07:41:43;149547.31;;;9.13;100.00
6599;BME280;3335;43.198;27.918;2023-03-16T07:44:10;149613.50;;;9.40;100.00
6599;BME280;3335;43.198;27.918;2023-03-16T07:46:37;149576.03;;;9.25;100.00
6599;BME280;3335;43.198;27.918;2023-03-16T07:49:04;149572.28;;;9.23;100.00
6599;BME280;3335;43.198;27.918;2023-03-16T07:51:31;149561.06;;;9.19;100.00
6599;BME280;3335;43.198;27.918;2023-03-16T07:53:57;149536.09;;;9.09;100.00
6599;BME280;3335;43.198;27.918;2023-03-16T07:56:24;149543.59;;;9.12;100.00
6599;BME280;3335;43.198;27.918;2023-03-16T07:58:53;149563.56;;;9.20;100.00
6599;BME280;3335;43.198;27.918;2023-03-16T08:01:20;149562.31;;;9.19;100.00
6599;BME280;3335;43.198;27.918;2023-03-16T08:03:47;149546.06;;;9.13;100.00
6599;BME280;3335;43.198;27.918;2023-03-16T08:06:14;149548.56;;;9.14;100.00
6599;BME280;3335;43.198;27.918;2023-03-16T08:08:41;149533.59;;;9.08;100.00
6599;BME280;3335;43.198;27.918;2023-03-16T08:11:08;149523.59;;;9.04;100.00
6599;BME280;3335;43.198;27.918;2023-03-16T08:13:35;149471.22;;;8.83;100.00
6599;BME280;3335;43.198;27.918;2023-03-16T08:16:04;149516.13;;;9.01;100.00
6599;BME280;3335;43.198;27.918;2023-03-16T08:18:34;149513.63;;;9.00;100.00
6599;BME280;3335;43.198;27.918;2023-03-16T08:21:02;149521.09;;;9.03;100.00
6599;BME280;3335;43.198;27.918;2023-03-16T08:23:29;149522.34;;;9.03;100.00
6599;BME280;3335;43.198;27.918;2023-03-16T08:25:58;149468.72;;;8.82;100.00
6599;BME280;3335;43.198;27.918;2023-03-16T08:28:25;149512.38;;;8.99;100.00
6599;BME280;3335;43.198;27.918;2023-03-16T08:30:53;149413.84;;;8.59;100.00
6599;BME280;3335;43.198;27.918;2023-03-16T08:33:21;149508.66;;;8.98;100.00
6599;BME280;3335;43.198;27.918;2023-03-16T08:35:48;149514.88;;;9.00;100.00
6599;BME280;3335;43.198;27.918;2023-03-16T08:38:16;149508.66;;;8.98;100.00
6599;BME280;3335;43.198;27.918;2023-03-16T08:40:43;149523.59;;;9.04;100.00
6599;BME280;3335;43.198;27.918;2023-03-16T08:43:13;149503.66;;;8.96;100.00
6599;BME280;3335;43.198;27.918;2023-03-16T08:45:40;149506.16;;;8.97;100.00
6599;BME280;3335;43.198;27.918;2023-03-16T08:48:08;149498.66;;;8.94;100.00
6599;BME280;3335;43.198;27.918;2023-03-16T08:50:40;149491.19;;;8.91;100.00
6599;BME280;3335;43.198;27.918;2023-03-16T08:53:09;149508.66;;;8.98;100.00
6599;BME280;3335;43.198;27.918;2023-03-16T08:55:36;149506.16;;;8.97;100.00
6599;BME280;3335;43.198;27.918;2023-03-16T08:58:04;149491.19;;;8.91;100.00
6599;BME280;3335;43.198;27.918;2023-03-16T09:00:31;149501.16;;;8.95;100.00
6599;BME280;3335;43.198;27.918;2023-03-16T09:02:58;149498.66;;;8.94;100.00
6599;BME280;3335;43.198;27.918;2023-03-16T09:05:27;149566.06;;;9.21;100.00
6599;BME280;3335;43.198;27.918;2023-03-16T09:07:57;149573.53;;;9.24;100.00
6599;BME280;3335;43.198;27.918;2023-03-16T09:10:24;149579.75;;;9.27;100.00
6599;BME280;3335;43.198;27.918;2023-03-16T09:12:52;149538.59;;;9.10;100.00
6599;BME280;3335;43.198;27.918;2023-03-16T09:15:20;149581.00;;;9.27;100.00
6599;BME280;3335;43.198;27.918;2023-03-16T09:17:47;149586.03;;;9.29;100.00
6599;BME280;3335;43.198;27.918;2023-03-16T09:20:16;149551.06;;;9.15;100.00
6599;BME280;3335;43.198;27.918;2023-03-16T09:22:43;149568.53;;;9.22;100.00
6599;BME280;3335;43.198;27.918;2023-03-16T09:25:11;149605.97;;;9.37;100.00
6599;BME280;3335;43.198;27.918;2023-03-16T09:27:38;149601.00;;;9.35;100.00
6599;BME280;3335;43.198;27.918;2023-03-16T09:30:07;149581.00;;;9.27;100.00
6599;BME280;3335;43.198;27.918;2023-03-16T09:32:34;149593.47;;;9.32;100.00
6599;BME280;3335;43.198;27.918;2023-03-16T09:35:02;149569.78;;;9.22;100.00
6599;BME280;3335;43.198;27.918;2023-03-16T09:37:30;149568.53;;;9.22;100.00
6599;BME280;3335;43.198;27.918;2023-03-16T09:39:57;149418.81;;;8.61;100.00
6599;BME280;3335;43.198;27.918;2023-03-16T09:42:29;149536.09;;;9.09;100.00
6599;BME280;3335;43.198;27.918;2023-03-16T09:45:08;149518.63;;;9.02;100.00
6599;BME280;3335;43.198;27.918;2023-03-16T09:47:39;149425.06;;;8.64;100.00
6599;BME280;3335;43.198;27.918;2023-03-16T09:50:12;149536.09;;;9.09;100.00
6599;BME280;3335;43.198;27.918;2023-03-16T09:52:47;149526.13;;;9.05;100.00
6599;BME280;3335;43.198;27.918;2023-03-16T09:55:25;149521.09;;;9.03;100.00
6599;BME280;3335;43.198;27.918;2023-03-16T09:57:55;149509.88;;;8.98;100.00
6599;BME280;3335;43.198;27.918;2023-03-16T10:00:25;149512.38;;;8.99;100.00
6599;BME280;3335;43.198;27.918;2023-03-16T10:03:04;149496.19;;;8.93;100.00
6599;BME280;3335;43.198;27.918;2023-03-16T10:05:36;149498.66;;;8.94;100.00
6599;BME280;3335;43.198;27.918;2023-03-16T10:08:13;149498.66;;;8.94;100.00
6599;BME280;3335;43.198;27.918;2023-03-16T10:11:04;149487.41;;;8.89;100.00
6599;BME280;3335;43.198;27.918;2023-03-16T10:13:40;149501.16;;;8.95;100.00
6599;BME280;3335;43.198;27.918;2023-03-16T10:16:13;149488.66;;;8.90;100.00
6599;BME280;3335;43.198;27.918;2023-03-16T10:18:45;149472.50;;;8.83;100.00
6599;BME280;3335;43.198;27.918;2023-03-16T10:21:14;149461.25;;;8.78;100.00
6599;BME280;3335;43.198;27.918;2023-03-16T10:23:42;149478.69;;;8.86;100.00
6599;BME280;3335;43.198;27.918;2023-03-16T10:26:13;149456.25;;;8.76;100.00
6599;BME280;3335;43.198;27.918;2023-03-16T10:28:44;149474.94;;;8.84;100.00
6599;BME280;3335;43.198;27.918;2023-03-16T10:31:12;149483.72;;;8.88;100.00
6599;BME280;3335;43.198;27.918;2023-03-16T10:33:40;149403.88;;;8.55;100.00
6599;BME280;3335;43.198;27.918;2023-03-16T10:36:13;149513.63;;;9.00;100.00
6599;BME280;3335;43.198;27.918;2023-03-16T10:38:43;149516.13;;;9.01;100.00
6599;BME280;3335;43.198;27.918;2023-03-16T10:41:26;149513.63;;;9.00;100.00
6599;BME280;3335;43.198;27.918;2023-03-16T10:43:57;149471.22;;;8.83;100.00
6599;BME280;3335;43.198;27.918;2023-03-16T10:46:35;149523.59;;;9.04;100.00
6599;BME280;3335;43.198;27.918;2023-03-16T10:49:03;149514.88;;;9.00;100.00
6599;BME280;3335;43.198;27.918;2023-03-16T10:51:32;149508.66;;;8.98;100.00
6599;BME280;3335;43.198;27.918;2023-03-16T10:54:06;149561.06;;;9.19;100.00
6599;BME280;3335;43.198;27.918;2023-03-16T10:56:35;149583.50;;;9.28;100.00
6599;BME280;3335;43.198;27.918;2023-03-16T10:59:15;149584.75;;;9.29;100.00
6599;BME280;3335;43.198;27.918;2023-03-16T11:01:52;149586.03;;;9.29;100.00
6599;BME280;3335;43.198;27.918;2023-03-16T11:04:19;149605.97;;;9.37;100.00
6599;BME280;3335;43.198;27.918;2023-03-16T11:06:50;149604.72;;;9.37;100.00
6599;BME280;3335;43.198;27.918;2023-03-16T11:09:21;149633.44;;;9.48;100.00
6599;BME280;3335;43.198;27.918;2023-03-16T11:11:49;149629.69;;;9.47;100.00
6599;BME280;3335;43.198;27.918;2023-03-16T11:14:21;149637.19;;;9.50;100.00
6599;BME280;3335;43.198;27.918;2023-03-16T11:16:52;149690.88;;;9.72;100.00
6599;BME280;3335;43.198;27.918;2023-03-16T11:19:25;149658.41;;;9.58;100.00
6599;BME280;3335;43.198;27.918;2023-03-16T11:21:58;149662.13;;;9.60;100.00
6599;BME280;3335;43.198;27.918;2023-03-16T11:24:31;149670.91;;;9.63;100.00
6599;BME280;3335;43.198;27.918;2023-03-16T11:27:03;149718.34;;;9.83;100.00
6599;BME280;3335;43.198;27.918;2023-03-16T11:29:47;149753.31;;;9.97;100.00
6599;BME280;3335;43.198;27.918;2023-03-16T11:32:19;149760.78;;;10.00;100.00
6599;BME280;3335;43.198;27.918;2023-03-16T11:34:49;149773.25;;;10.05;100.00
6599;BME280;3335;43.198;27.918;2023-03-16T11:37:24;149800.81;;;10.16;100.00
6599;BME280;3335;43.198;27.918;2023-03-16T11:40:01;149780.75;;;10.08;100.00
6599;BME280;3335;43.198;27.918;2023-03-16T11:42:36;149758.28;;;9.99;100.00
6599;BME280;3335;43.198;27.918;2023-03-16T11:45:17;149744.53;;;9.93;100.00
6599;BME280;3335;43.198;27.918;2023-03-16T11:48:18;149749.53;;;9.95;100.00
6599;BME280;3335;43.198;27.918;2023-03-16T11:51:00;149728.31;;;9.87;100.00
6599;BME280;3335;43.198;27.918;2023-03-16T11:53:48;149727.06;;;9.86;100.00
6599;BME280;3335;43.198;27.918;2023-03-16T11:56:30;149714.56;;;9.81;100.00
6599;BME280;3335;43.198;27.918;2023-03-16T11:59:13;149700.84;;;9.76;100.00
6599;BME280;3335;43.198;27.918;2023-03-16T12:01:57;149695.88;;;9.74;100.00
6599;BME280;3335;43.198;27.918;2023-03-16T12:04:37;149663.38;;;9.60;100.00
6599;BME280;3335;43.198;27.918;2023-03-16T12:07:18;149643.44;;;9.52;100.00
6599;BME280;3335;43.198;27.918;2023-03-16T12:10:11;149628.44;;;9.46;100.00
6599;BME280;3335;43.198;27.918;2023-03-16T12:12:53;149601.00;;;9.35;100.00
6599;BME280;3335;43.198;27.918;2023-03-16T12:15:37;149578.53;;;9.26;100.00
6599;BME280;3335;43.198;27.918;2023-03-16T12:18:16;149563.56;;;9.20;100.00
6599;BME280;3335;43.198;27.918;2023-03-16T12:20:50;149544.81;;;9.12;100.00
6599;BME280;3335;43.198;27.918;2023-03-16T12:23:20;149547.31;;;9.13;100.00
6599;BME280;3335;43.198;27.918;2023-03-16T12:25:52;149526.13;;;9.05;100.00
6599;BME280;3335;43.198;27.918;2023-03-16T12:28:23;149511.13;;;8.99;100.00
6599;BME280;3335;43.198;27.918;2023-03-16T12:30:57;149513.63;;;9.00;100.00
6599;BME280;3335;43.198;27.918;2023-03-16T12:33:40;149461.25;;;8.78;100.00
6599;BME280;3335;43.198;27.918;2023-03-16T12:36:37;149456.25;;;8.76;100.00
6599;BME280;3335;43.198;27.918;2023-03-16T12:39:12;149501.16;;;8.95;100.00
6599;BME280;3335;43.198;27.918;2023-03-16T12:41:51;149486.16;;;8.89;100.00
6599;BME280;3335;43.198;27.918;2023-03-16T12:44:29;149487.41;;;8.89;100.00
6599;BME280;3335;43.198;27.918;2023-03-16T12:47:06;149478.69;;;8.86;100.00
6599;BME280;3335;43.198;27.918;2023-03-16T12:49:38;149501.16;;;8.95;100.00
6599;BME280;3335;43.198;27.918;2023-03-16T12:52:07;149508.66;;;8.98;100.00
6599;BME280;3335;43.198;27.918;2023-03-16T12:54:34;149506.16;;;8.97;100.00
6599;BME280;3335;43.198;27.918;2023-03-16T12:57:05;149513.63;;;9.00;100.00
6599;BME280;3335;43.198;27.918;2023-03-16T12:59:37;149521.09;;;9.03;100.00
6599;BME280;3335;43.198;27.918;2023-03-16T13:02:10;149523.59;;;9.04;100.00
6599;BME280;3335;43.198;27.918;2023-03-16T13:04:43;149368.91;;;8.41;100.00
6599;BME280;3335;43.198;27.918;2023-03-16T13:07:16;149477.44;;;8.85;100.00
6599;BME280;3335;43.198;27.918;2023-03-16T13:09:48;149463.72;;;8.79;100.00
6599;BME280;3335;43.198;27.918;2023-03-16T13:12:25;149468.72;;;8.82;100.00
6599;BME280;3335;43.198;27.918;2023-03-16T13:14:52;149483.72;;;8.88;100.00